sensor_id;sensor_type;location;lat;lon;timestamp;pressure;altitude;pressure_sealevel;temperature;humidity
47082;BME280;33066;49.296;14.470;2023-09-19T00:00:00;96466.95;;;24.01;41.97
47082;BME280;33066;49.296;14.470;2023-09-19T00:02:26;96463.97;;;24.00;41.88
47082;BME280;33066;49.296;14.470;2023-09-19T00:04:51;96466.17;;;23.93;41.91
47082;BME280;33066;49.296;14.470;2023-09-19T00:07:17;96463.89;;;23.88;41.98
47082;BME280;33066;49.296;14.470;2023-09-19T00:09:43;96460.72;;;23.62;42.04
47082;BME280;33066;49.296;14.470;2023-09-19T00:12:09;96458.85;;;23.83;42.17
47082;BME280;33066;49.296;14.470;2023-09-19T00:14:35;96455.90;;;23.83;42.31
47082;BME280;33066;49.296;14.470;2023-09-19T00:17:01;96455.60;;;23.83;42.30
47082;BME280;33066;49.296;14.470;2023-09-19T00:19:27;96457.79;;;23.85;42.14
47082;BME280;33066;49.296;14.470;2023-09-19T00:21:53;96457.90;;;23.88;42.05
47082;BME280;33066;49.296;14.470;2023-09-19T00:24:18;96460.98;;;23.93;41.93
47082;BME280;33066;49.296;14.470;2023-09-19T00:26:44;96459.92;;;23.96;41.91
47082;BME280;33066;49.296;14.470;2023-09-19T00:29:10;96460.50;;;23.74;41.81
47082;BME280;33066;49.296;14.470;2023-09-19T00:31:36;96457.02;;;24.02;41.76
47082;BME280;33066;49.296;14.470;2023-09-19T00:34:04;96457.69;;;24.00;41.77
47082;BME280;33066;49.296;14.470;2023-09-19T00:36:28;96456.87;;;23.95;41.86
47082;BME280;33066;49.296;14.470;2023-09-19T00:38:53;96453.54;;;23.64;41.88
47082;BME280;33066;49.296;14.470;2023-09-19T00:41:19;96458.31;;;23.81;41.91
47082;BME280;33066;49.296;14.470;2023-09-19T00:43:45;96455.67;;;23.74;42.02
47082;BME280;33066;49.296;14.470;2023-09-19T00:46:11;96457.54;;;23.70;42.16
47082;BME280;33066;49.296;14.470;2023-09-19T00:48:41;96460.05;;;23.67;42.11
47082;BME280;33066;49.296;14.470;2023-09-19T00:51:04;96464.18;;;23.63;42.28
47082;BME280;33066;49.296;14.470;2023-09-19T00:53:31;96465.25;;;23.38;42.28
47082;BME280;33066;49.296;14.470;2023-09-19T00:55:55;96462.57;;;23.63;42.29
47082;BME280;33066;49.296;14.470;2023-09-19T00:58:20;96465.28;;;23.87;42.19
47082;BME280;33066;49.296;14.470;2023-09-19T01:00:48;96465.84;;;23.63;42.15
47082;BME280;33066;49.296;14.470;2023-09-19T01:03:12;96464.33;;;23.84;42.08
47082;BME280;33066;49.296;14.470;2023-09-19T01:05:38;96467.87;;;23.58;42.21
47082;BME280;33066;49.296;14.470;2023-09-19T01:08:06;96470.90;;;23.57;42.24
47082;BME280;33066;49.296;14.470;2023-09-19T01:10:30;96471.94;;;23.61;42.00
47082;BME280;33066;49.296;14.470;2023-09-19T01:13:03;96483.33;;;23.63;42.15
47082;BME280;33066;49.296;14.470;2023-09-19T01:15:30;96489.07;;;23.86;41.97
47082;BME280;33066;49.296;14.470;2023-09-19T01:17:52;96496.23;;;23.66;41.95
47082;BME280;33066;49.296;14.470;2023-09-19T01:20:23;96495.17;;;23.62;41.84
47082;BME280;33066;49.296;14.470;2023-09-19T01:22:48;96494.91;;;23.65;41.90
47082;BME280;33066;49.296;14.470;2023-09-19T01:25:23;96494.37;;;23.64;41.89
47082;BME280;33066;49.296;14.470;2023-09-19T01:32:23;96493.11;;;23.74;42.11
47082;BME280;33066;49.296;14.470;2023-09-19T01:34:50;96490.66;;;23.69;42.14
47082;BME280;33066;49.296;14.470;2023-09-19T01:37:14;96493.71;;;23.88;42.19
47082;BME280;33066;49.296;14.470;2023-09-19T01:39:40;96493.82;;;23.58;42.11
47082;BME280;33066;49.296;14.470;2023-09-19T01:42:14;96491.60;;;23.60;42.17
47082;BME280;33066;49.296;14.470;2023-09-19T01:44:39;96498.06;;;23.58;42.24
47082;BME280;33066;49.296;14.470;2023-09-19T01:47:02;96501.87;;;23.84;42.20
47082;BME280;33066;49.296;14.470;2023-09-19T01:49:40;96503.41;;;23.60;42.32
47082;BME280;33066;49.296;14.470;2023-09-19T01:51:53;96501.34;;;23.61;42.44
47082;BME280;33066;49.296;14.470;2023-09-19T01:54:19;96504.20;;;23.61;42.21
47082;BME280;33066;49.296;14.470;2023-09-19T01:56:42;96503.25;;;23.85;42.21
47082;BME280;33066;49.296;14.470;2023-09-19T01:59:09;96502.34;;;23.52;42.41
47082;BME280;33066;49.296;14.470;2023-09-19T02:01:29;96506.94;;;23.45;42.36
47082;BME280;33066;49.296;14.470;2023-09-19T02:03:54;96508.98;;;23.70;42.22
47082;BME280;33066;49.296;14.470;2023-09-19T02:06:20;96508.59;;;23.67;42.28
47082;BME280;33066;49.296;14.470;2023-09-19T02:08:46;96507.98;;;23.65;42.22
47082;BME280;33066;49.296;14.470;2023-09-19T02:11:11;96509.26;;;23.85;42.43
47082;BME280;33066;49.296;14.470;2023-09-19T02:13:37;96509.56;;;23.60;42.36
47082;BME280;33066;49.296;14.470;2023-09-19T02:16:04;96509.64;;;23.60;42.29
47082;BME280;33066;49.296;14.470;2023-09-19T02:18:28;96512.77;;;23.37;42.25
47082;BME280;33066;49.296;14.470;2023-09-19T02:20:53;96510.69;;;23.38;42.21
47082;BME280;33066;49.296;14.470;2023-09-19T02:23:18;96507.08;;;23.63;42.14
47082;BME280;33066;49.296;14.470;2023-09-19T02:25:43;96502.77;;;23.39;42.13
47082;BME280;33066;49.296;14.470;2023-09-19T02:28:08;96502.07;;;23.39;42.15
47082;BME280;33066;49.296;14.470;2023-09-19T02:30:33;96504.01;;;23.40;42.21
47082;BME280;33066;49.296;14.470;2023-09-19T02:33:01;96501.07;;;23.63;42.20
47082;BME280;33066;49.296;14.470;2023-09-19T02:35:26;96501.19;;;23.34;42.23
47082;BME280;33066;49.296;14.470;2023-09-19T02:37:51;96494.98;;;23.28;42.25
47082;BME280;33066;49.296;14.470;2023-09-19T02:40:16;96498.58;;;23.44;42.37
47082;BME280;33066;49.296;14.470;2023-09-19T02:42:42;96498.99;;;23.16;42.45
47082;BME280;33066;49.296;14.470;2023-09-19T02:45:08;96498.20;;;23.35;42.49
47082;BME280;33066;49.296;14.470;2023-09-19T02:47:34;96494.31;;;23.56;42.48
47082;BME280;33066;49.296;14.470;2023-09-19T02:49:57;96496.70;;;23.27;42.53
47082;BME280;33066;49.296;14.470;2023-09-19T02:52:23;96497.47;;;23.23;42.63
47082;BME280;33066;49.296;14.470;2023-09-19T02:54:49;96500.15;;;23.25;42.63
47082;BME280;33066;49.296;14.470;2023-09-19T02:57:16;96503.80;;;23.48;42.59
47082;BME280;33066;49.296;14.470;2023-09-19T02:59:41;96502.03;;;23.46;42.67
47082;BME280;33066;49.296;14.470;2023-09-19T03:02:07;96498.46;;;23.48;42.62
47082;BME280;33066;49.296;14.470;2023-09-19T03:04:33;96498.72;;;23.24;42.64
47082;BME280;33066;49.296;14.470;2023-09-19T03:06:58;96496.69;;;23.21;42.67
47082;BME280;33066;49.296;14.470;2023-09-19T03:09:23;96496.36;;;23.20;42.69
47082;BME280;33066;49.296;14.470;2023-09-19T03:13:01;96500.95;;;23.35;42.15
47082;BME280;33066;49.296;14.470;2023-09-19T03:15:26;96502.17;;;23.44;42.30
47082;BME280;33066;49.296;14.470;2023-09-19T03:17:51;96502.42;;;23.36;42.49
47082;BME280;33066;49.296;14.470;2023-09-19T03:20:16;96501.53;;;23.28;42.53
47082;BME280;33066;49.296;14.470;2023-09-19T03:22:41;96502.46;;;23.20;42.58
47082;BME280;33066;49.296;14.470;2023-09-19T03:25:07;96503.28;;;23.40;42.68
47082;BME280;33066;49.296;14.470;2023-09-19T03:27:31;96498.47;;;22.89;42.78
47082;BME280;33066;49.296;14.470;2023-09-19T03:29:58;96498.11;;;23.35;42.75
47082;BME280;33066;49.296;14.470;2023-09-19T03:32:21;96500.17;;;23.11;42.89
47082;BME280;33066;49.296;14.470;2023-09-19T03:34:46;96499.54;;;22.89;42.81
47082;BME280;33066;49.296;14.470;2023-09-19T03:37:11;96502.72;;;22.88;42.74
47082;BME280;33066;49.296;14.470;2023-09-19T03:39:37;96502.33;;;23.11;42.71
47082;BME280;33066;49.296;14.470;2023-09-19T03:42:02;96500.43;;;23.28;42.77
47082;BME280;33066;49.296;14.470;2023-09-19T03:44:27;96497.88;;;22.98;42.86
47082;BME280;33066;49.296;14.470;2023-09-19T03:46:51;96502.56;;;23.17;43.01
47082;BME280;33066;49.296;14.470;2023-09-19T03:49:17;96505.19;;;22.91;43.13
47082;BME280;33066;49.296;14.470;2023-09-19T03:51:42;96502.51;;;23.15;43.05
47082;BME280;33066;49.296;14.470;2023-09-19T03:54:07;96505.37;;;23.16;42.87
47082;BME280;33066;49.296;14.470;2023-09-19T03:56:32;96499.97;;;22.92;42.68
47082;BME280;33066;49.296;14.470;2023-09-19T03:58:57;96500.92;;;23.20;42.74
47082;BME280;33066;49.296;14.470;2023-09-19T04:01:22;96508.34;;;23.16;42.79
47082;BME280;33066;49.296;14.470;2023-09-19T04:03:47;96512.55;;;22.92;42.77
47082;BME280;33066;49.296;14.470;2023-09-19T04:06:13;96515.18;;;23.14;42.70
47082;BME280;33066;49.296;14.470;2023-09-19T04:08:37;96516.02;;;22.91;42.61
47082;BME280;33066;49.296;14.470;2023-09-19T04:11:02;96520.58;;;22.90;42.57
47082;BME280;33066;49.296;14.470;2023-09-19T04:13:27;96519.53;;;22.89;42.57
47082;BME280;33066;49.296;14.470;2023-09-19T04:15:52;96518.40;;;23.13;42.31
47082;BME280;33066;49.296;14.470;2023-09-19T04:18:17;96517.27;;;23.15;42.24
47082;BME280;33066;49.296;14.470;2023-09-19T04:20:48;96519.92;;;23.19;42.13
47082;BME280;33066;49.296;14.470;2023-09-19T04:23:07;96520.11;;;22.96;42.05
47082;BME280;33066;49.296;14.470;2023-09-19T04:25:32;96517.39;;;23.22;41.87
47082;BME280;33066;49.296;14.470;2023-09-19T04:27:58;96518.22;;;23.23;41.75
47082;BME280;33066;49.296;14.470;2023-09-19T04:30:23;96521.05;;;23.01;41.80
47082;BME280;33066;49.296;14.470;2023-09-19T04:32:48;96525.88;;;23.26;42.00
47082;BME280;33066;49.296;14.470;2023-09-19T04:35:14;96533.06;;;22.97;42.30
47082;BME280;33066;49.296;14.470;2023-09-19T04:37:40;96537.34;;;23.16;42.35
47082;BME280;33066;49.296;14.470;2023-09-19T04:40:06;96544.03;;;22.88;42.23
47082;BME280;33066;49.296;14.470;2023-09-19T04:42:29;96544.38;;;22.90;42.03
47082;BME280;33066;49.296;14.470;2023-09-19T04:44:54;96546.18;;;23.13;41.96
47082;BME280;33066;49.296;14.470;2023-09-19T04:47:19;96547.26;;;22.88;41.92
47082;BME280;33066;49.296;14.470;2023-09-19T04:49:44;96550.90;;;22.89;41.89
47082;BME280;33066;49.296;14.470;2023-09-19T04:52:09;96553.60;;;22.89;41.83
47082;BME280;33066;49.296;14.470;2023-09-19T04:54:34;96554.42;;;22.89;41.82
47082;BME280;33066;49.296;14.470;2023-09-19T04:56:59;96554.92;;;22.89;41.79
47082;BME280;33066;49.296;14.470;2023-09-19T04:59:25;96555.44;;;22.88;41.89
47082;BME280;33066;49.296;14.470;2023-09-19T05:01:49;96563.49;;;23.09;41.87
47082;BME280;33066;49.296;14.470;2023-09-19T05:04:15;96571.22;;;23.09;41.87
47082;BME280;33066;49.296;14.470;2023-09-19T05:06:39;96570.80;;;22.85;41.90
47082;BME280;33066;49.296;14.470;2023-09-19T05:09:04;96569.73;;;22.92;41.49
47082;BME280;33066;49.296;14.470;2023-09-19T05:11:29;96572.36;;;23.15;41.36
47082;BME280;33066;49.296;14.470;2023-09-19T05:13:55;96570.60;;;23.24;41.34
47082;BME280;33066;49.296;14.470;2023-09-19T05:16:19;96575.12;;;23.18;41.37
47082;BME280;33066;49.296;14.470;2023-09-19T05:18:45;96577.94;;;23.11;41.60
47082;BME280;33066;49.296;14.470;2023-09-19T05:21:10;96579.85;;;22.60;41.72
47082;BME280;33066;49.296;14.470;2023-09-19T05:23:35;96581.15;;;22.84;42.12
47082;BME280;33066;49.296;14.470;2023-09-19T05:26:00;96582.64;;;22.86;42.14
47082;BME280;33066;49.296;14.470;2023-09-19T05:28:25;96585.72;;;22.86;42.19
47082;BME280;33066;49.296;14.470;2023-09-19T05:30:50;96589.21;;;23.05;42.23
47082;BME280;33066;49.296;14.470;2023-09-19T05:33:15;96589.90;;;23.05;42.31
47082;BME280;33066;49.296;14.470;2023-09-19T05:35:40;96594.99;;;23.04;42.37
47082;BME280;33066;49.296;14.470;2023-09-19T05:38:05;96597.30;;;23.02;42.41
47082;BME280;33066;49.296;14.470;2023-09-19T05:40:30;96598.36;;;22.79;42.47
47082;BME280;33066;49.296;14.470;2023-09-19T05:42:55;96597.35;;;23.05;42.43
47082;BME280;33066;49.296;14.470;2023-09-19T05:45:21;96600.42;;;23.08;42.33
47082;BME280;33066;49.296;14.470;2023-09-19T05:47:46;96604.33;;;22.82;42.39
47082;BME280;33066;49.296;14.470;2023-09-19T05:50:10;96607.22;;;23.06;42.46
47082;BME280;33066;49.296;14.470;2023-09-19T05:52:35;96609.75;;;23.33;42.35
47082;BME280;33066;49.296;14.470;2023-09-19T05:55:00;96611.89;;;23.08;42.22
47082;BME280;33066;49.296;14.470;2023-09-19T05:57:25;96616.12;;;22.65;42.01
47082;BME280;33066;49.296;14.470;2023-09-19T05:59:50;96618.80;;;22.99;42.01
47082;BME280;33066;49.296;14.470;2023-09-19T06:02:15;96620.13;;;23.27;41.95
47082;BME280;33066;49.296;14.470;2023-09-19T06:04:40;96626.89;;;23.11;42.02
47082;BME280;33066;49.296;14.470;2023-09-19T06:07:06;96629.41;;;23.14;42.13
47082;BME280;33066;49.296;14.470;2023-09-19T06:09:31;96631.77;;;23.17;42.12
47082;BME280;33066;49.296;14.470;2023-09-19T06:11:56;96635.51;;;23.22;41.86
47082;BME280;33066;49.296;14.470;2023-09-19T06:14:21;96638.79;;;23.24;41.98
47082;BME280;33066;49.296;14.470;2023-09-19T06:16:45;96641.11;;;23.27;41.48
47082;BME280;33066;49.296;14.470;2023-09-19T06:19:11;96641.77;;;23.30;41.65
47082;BME280;33066;49.296;14.470;2023-09-19T06:21:36;96646.54;;;23.29;41.70
47082;BME280;33066;49.296;14.470;2023-09-19T06:24:01;96652.62;;;23.28;41.40
47082;BME280;33066;49.296;14.470;2023-09-19T06:26:26;96656.42;;;23.03;41.40
47082;BME280;33066;49.296;14.470;2023-09-19T06:28:51;96659.28;;;23.25;41.25
47082;BME280;33066;49.296;14.470;2023-09-19T06:31:16;96664.90;;;23.22;40.50
47082;BME280;33066;49.296;14.470;2023-09-19T06:33:41;96668.42;;;23.22;40.74
47082;BME280;33066;49.296;14.470;2023-09-19T06:36:06;96672.90;;;23.18;40.89
47082;BME280;33066;49.296;14.470;2023-09-19T06:38:31;96673.47;;;23.34;40.66
47082;BME280;33066;49.296;14.470;2023-09-19T06:40:56;96677.91;;;23.10;40.89
47082;BME280;33066;49.296;14.470;2023-09-19T06:43:21;96679.77;;;23.10;40.89
47082;BME280;33066;49.296;14.470;2023-09-19T06:45:46;96680.33;;;23.03;40.97
47082;BME280;33066;49.296;14.470;2023-09-19T06:48:11;96680.99;;;23.04;41.05
47082;BME280;33066;49.296;14.470;2023-09-19T06:50:36;96679.11;;;22.97;41.25
47082;BME280;33066;49.296;14.470;2023-09-19T06:53:02;96680.31;;;23.31;41.25
47082;BME280;33066;49.296;14.470;2023-09-19T06:55:28;96682.53;;;23.13;41.18
47082;BME280;33066;49.296;14.470;2023-09-19T06:57:51;96686.03;;;23.17;41.21
47082;BME280;33066;49.296;14.470;2023-09-19T07:00:17;96690.46;;;23.43;41.05
47082;BME280;33066;49.296;14.470;2023-09-19T07:02:41;96692.60;;;23.53;41.03
47082;BME280;33066;49.296;14.470;2023-09-19T07:05:06;96695.94;;;23.35;41.18
47082;BME280;33066;49.296;14.470;2023-09-19T07:07:32;96702.43;;;23.16;41.01
47082;BME280;33066;49.296;14.470;2023-09-19T07:09:56;96703.27;;;23.15;40.85
47082;BME280;33066;49.296;14.470;2023-09-19T07:12:22;96708.46;;;23.28;40.97
47082;BME280;33066;49.296;14.470;2023-09-19T07:14:47;96711.25;;;23.60;40.74
47082;BME280;33066;49.296;14.470;2023-09-19T07:17:12;96710.10;;;23.46;40.72
47082;BME280;33066;49.296;14.470;2023-09-19T07:19:37;96713.69;;;23.52;40.70
47082;BME280;33066;49.296;14.470;2023-09-19T07:22:02;96712.41;;;23.55;40.62
47082;BME280;33066;49.296;14.470;2023-09-19T07:24:28;96714.13;;;23.62;40.54
47082;BME280;33066;49.296;14.470;2023-09-19T07:26:52;96716.12;;;23.71;40.54
47082;BME280;33066;49.296;14.470;2023-09-19T07:29:18;96718.37;;;23.73;40.50
47082;BME280;33066;49.296;14.470;2023-09-19T07:31:42;96724.55;;;23.83;40.39
47082;BME280;33066;49.296;14.470;2023-09-19T07:34:08;96724.45;;;23.76;40.41
47082;BME280;33066;49.296;14.470;2023-09-19T07:36:34;96732.73;;;23.94;40.35
47082;BME280;33066;49.296;14.470;2023-09-19T07:38:59;96738.09;;;23.69;40.42
47082;BME280;33066;49.296;14.470;2023-09-19T07:41:24;96739.37;;;23.70;40.56
47082;BME280;33066;49.296;14.470;2023-09-19T07:43:51;96740.72;;;23.84;40.43
47082;BME280;33066;49.296;14.470;2023-09-19T07:46:15;96735.44;;;23.89;40.29
47082;BME280;33066;49.296;14.470;2023-09-19T07:48:41;96732.61;;;23.80;40.43
47082;BME280;33066;49.296;14.470;2023-09-19T07:51:07;96738.95;;;24.11;40.28
47082;BME280;33066;49.296;14.470;2023-09-19T07:53:33;96736.44;;;24.08;39.69
47082;BME280;33066;49.296;14.470;2023-09-19T07:56:02;96732.37;;;24.00;39.82
47082;BME280;33066;49.296;14.470;2023-09-19T07:58:23;96730.00;;;23.99;40.20
47082;BME280;33066;49.296;14.470;2023-09-19T08:00:48;96733.59;;;23.94;40.12
47082;BME280;33066;49.296;14.470;2023-09-19T08:03:14;96733.29;;;23.76;40.05
47082;BME280;33066;49.296;14.470;2023-09-19T08:05:38;96735.01;;;24.19;39.74
47082;BME280;33066;49.296;14.470;2023-09-19T08:08:05;96741.79;;;24.32;39.15
47082;BME280;33066;49.296;14.470;2023-09-19T08:10:30;96745.42;;;24.08;39.59
47082;BME280;33066;49.296;14.470;2023-09-19T08:12:55;96747.12;;;24.38;39.66
47082;BME280;33066;49.296;14.470;2023-09-19T08:15:20;96749.26;;;24.41;38.41
47082;BME280;33066;49.296;14.470;2023-09-19T08:17:46;96749.67;;;23.97;39.19
47082;BME280;33066;49.296;14.470;2023-09-19T08:20:12;96751.09;;;24.20;38.81
47082;BME280;33066;49.296;14.470;2023-09-19T08:22:37;96749.30;;;24.28;38.61
47082;BME280;33066;49.296;14.470;2023-09-19T08:25:01;96759.62;;;24.26;38.56
47082;BME280;33066;49.296;14.470;2023-09-19T08:27:29;96758.41;;;24.08;38.06
47082;BME280;33066;49.296;14.470;2023-09-19T08:29:55;96761.13;;;23.87;38.22
47082;BME280;33066;49.296;14.470;2023-09-19T08:32:18;96763.21;;;24.12;38.46
47082;BME280;33066;49.296;14.470;2023-09-19T08:34:44;96765.69;;;23.97;38.69
47082;BME280;33066;49.296;14.470;2023-09-19T08:37:10;96763.41;;;24.17;38.17
47082;BME280;33066;49.296;14.470;2023-09-19T08:39:35;96761.03;;;24.19;38.12
47082;BME280;33066;49.296;14.470;2023-09-19T08:42:01;96766.51;;;24.23;38.40
47082;BME280;33066;49.296;14.470;2023-09-19T08:44:27;96766.79;;;24.20;38.50
47082;BME280;33066;49.296;14.470;2023-09-19T08:46:55;96765.81;;;24.52;38.17
47082;BME280;33066;49.296;14.470;2023-09-19T08:49:24;96771.34;;;24.52;38.16
47082;BME280;33066;49.296;14.470;2023-09-19T08:51:46;96773.16;;;24.39;38.17
47082;BME280;33066;49.296;14.470;2023-09-19T08:54:17;96775.09;;;24.68;37.28
47082;BME280;33066;49.296;14.470;2023-09-19T08:56:36;96767.13;;;24.01;36.27
47082;BME280;33066;49.296;14.470;2023-09-19T08:59:03;96766.54;;;24.11;37.14
47082;BME280;33066;49.296;14.470;2023-09-19T09:01:26;96770.71;;;24.19;36.69
47082;BME280;33066;49.296;14.470;2023-09-19T09:03:53;96773.17;;;24.27;36.67
47082;BME280;33066;49.296;14.470;2023-09-19T09:06:17;96781.07;;;24.16;37.00
47082;BME280;33066;49.296;14.470;2023-09-19T09:08:43;96786.38;;;24.32;36.86
47082;BME280;33066;49.296;14.470;2023-09-19T09:11:08;96791.73;;;24.62;36.27
47082;BME280;33066;49.296;14.470;2023-09-19T09:13:35;96796.50;;;24.61;36.16
47082;BME280;33066;49.296;14.470;2023-09-19T09:16:00;96793.28;;;24.37;36.08
47082;BME280;33066;49.296;14.470;2023-09-19T09:18:28;96798.49;;;24.60;36.04
47082;BME280;33066;49.296;14.470;2023-09-19T09:20:52;96792.61;;;24.32;35.97
47082;BME280;33066;49.296;14.470;2023-09-19T09:23:18;96798.71;;;24.58;36.01
47082;BME280;33066;49.296;14.470;2023-09-19T09:25:49;96801.90;;;24.49;35.64
47082;BME280;33066;49.296;14.470;2023-09-19T09:28:10;96805.12;;;24.17;35.85
47082;BME280;33066;49.296;14.470;2023-09-19T09:30:36;96806.31;;;24.60;35.97
47082;BME280;33066;49.296;14.470;2023-09-19T09:33:11;96802.70;;;24.41;35.21
47082;BME280;33066;49.296;14.470;2023-09-19T09:35:29;96801.38;;;24.20;35.11
47082;BME280;33066;49.296;14.470;2023-09-19T09:37:59;96806.42;;;24.67;35.22
47082;BME280;33066;49.296;14.470;2023-09-19T09:40:19;96803.73;;;24.39;34.33
47082;BME280;33066;49.296;14.470;2023-09-19T09:42:45;96799.41;;;24.84;34.24
47082;BME280;33066;49.296;14.470;2023-09-19T09:45:15;96801.17;;;24.74;34.04
47082;BME280;33066;49.296;14.470;2023-09-19T09:47:41;96799.72;;;24.94;33.93
47082;BME280;33066;49.296;14.470;2023-09-19T09:50:04;96801.27;;;24.90;34.20
47082;BME280;33066;49.296;14.470;2023-09-19T09:52:29;96799.57;;;24.71;33.91
47082;BME280;33066;49.296;14.470;2023-09-19T09:54:59;96795.74;;;24.96;33.72
47082;BME280;33066;49.296;14.470;2023-09-19T09:57:21;96798.32;;;25.12;33.55
47082;BME280;33066;49.296;14.470;2023-09-19T09:59:49;96797.11;;;25.29;33.21
47082;BME280;33066;49.296;14.470;2023-09-19T10:02:11;96797.57;;;25.66;33.06
47082;BME280;33066;49.296;14.470;2023-09-19T10:04:37;96800.93;;;25.75;31.66
47082;BME280;33066;49.296;14.470;2023-09-19T10:07:03;96792.51;;;25.36;31.77
47082;BME280;33066;49.296;14.470;2023-09-19T10:09:29;96796.73;;;25.43;31.84
47082;BME280;33066;49.296;14.470;2023-09-19T10:12:02;96794.67;;;25.61;32.01
47082;BME280;33066;49.296;14.470;2023-09-19T10:14:21;96790.19;;;25.28;31.98
47082;BME280;33066;49.296;14.470;2023-09-19T10:16:47;96796.30;;;25.48;32.24
47082;BME280;33066;49.296;14.470;2023-09-19T10:19:21;96803.32;;;25.45;32.34
47082;BME280;33066;49.296;14.470;2023-09-19T10:21:38;96801.77;;;25.59;32.30
47082;BME280;33066;49.296;14.470;2023-09-19T10:24:05;96797.70;;;25.63;32.01
47082;BME280;33066;49.296;14.470;2023-09-19T10:26:30;96803.10;;;25.59;32.03
47082;BME280;33066;49.296;14.470;2023-09-19T10:28:56;96800.37;;;25.70;32.17
47082;BME280;33066;49.296;14.470;2023-09-19T10:31:22;96799.98;;;25.71;32.31
47082;BME280;33066;49.296;14.470;2023-09-19T10:33:47;96805.95;;;26.31;31.60
47082;BME280;33066;49.296;14.470;2023-09-19T10:36:14;96801.59;;;26.68;30.76
47082;BME280;33066;49.296;14.470;2023-09-19T10:38:39;96800.54;;;27.12;30.58
47082;BME280;33066;49.296;14.470;2023-09-19T10:41:07;96792.39;;;27.45;30.19
47082;BME280;33066;49.296;14.470;2023-09-19T10:43:32;96788.82;;;28.02;28.92
47082;BME280;33066;49.296;14.470;2023-09-19T10:46:03;96794.04;;;27.54;29.15
47082;BME280;33066;49.296;14.470;2023-09-19T10:48:23;96800.37;;;27.40;30.05
47082;BME280;33066;49.296;14.470;2023-09-19T10:50:51;96797.92;;;27.32;30.19
47082;BME280;33066;49.296;14.470;2023-09-19T10:53:14;96803.94;;;27.30;30.30
47082;BME280;33066;49.296;14.470;2023-09-19T10:55:40;96801.36;;;25.96;30.38
47082;BME280;33066;49.296;14.470;2023-09-19T10:58:05;96793.49;;;27.45;28.00
47082;BME280;33066;49.296;14.470;2023-09-19T11:00:31;96795.46;;;27.74;28.65
47082;BME280;33066;49.296;14.470;2023-09-19T11:05:22;96791.67;;;28.38;26.78
47082;BME280;33066;49.296;14.470;2023-09-19T11:07:57;96787.89;;;29.21;26.63
47082;BME280;33066;49.296;14.470;2023-09-19T11:12:48;96789.25;;;29.79;24.71
47082;BME280;33066;49.296;14.470;2023-09-19T11:15:07;96789.28;;;30.31;24.90
47082;BME280;33066;49.296;14.470;2023-09-19T11:17:32;96788.71;;;30.58;24.54
47082;BME280;33066;49.296;14.470;2023-09-19T11:22:23;96785.32;;;30.95;24.04
47082;BME280;33066;49.296;14.470;2023-09-19T11:24:48;96781.30;;;30.73;23.54
47082;BME280;33066;49.296;14.470;2023-09-19T11:27:15;96782.35;;;30.70;24.33
47082;BME280;33066;49.296;14.470;2023-09-19T11:29:40;96780.42;;;30.75;24.42
47082;BME280;33066;49.296;14.470;2023-09-19T11:32:06;96777.23;;;30.78;24.47
47082;BME280;33066;49.296;14.470;2023-09-19T11:34:39;96781.59;;;31.45;24.15
47082;BME280;33066;49.296;14.470;2023-09-19T11:36:59;96773.78;;;31.70;22.86
47082;BME280;33066;49.296;14.470;2023-09-19T11:39:26;96782.40;;;31.48;22.71
47082;BME280;33066;49.296;14.470;2023-09-19T11:41:48;96786.44;;;31.25;22.91
47082;BME280;33066;49.296;14.470;2023-09-19T11:44:33;96782.45;;;31.41;22.54
47082;BME280;33066;49.296;14.470;2023-09-19T11:46:53;96780.56;;;30.90;22.30
47082;BME280;33066;49.296;14.470;2023-09-19T11:49:07;96773.69;;;30.84;22.65
47082;BME280;33066;49.296;14.470;2023-09-19T11:51:40;96772.92;;;31.36;22.43
47082;BME280;33066;49.296;14.470;2023-09-19T11:53:59;96781.59;;;30.69;22.28
47082;BME280;33066;49.296;14.470;2023-09-19T11:56:24;96773.86;;;30.52;23.30
47082;BME280;33066;49.296;14.470;2023-09-19T11:58:49;96770.44;;;30.02;22.93
47082;BME280;33066;49.296;14.470;2023-09-19T12:01:21;96768.83;;;29.75;23.20
47082;BME280;33066;49.296;14.470;2023-09-19T12:03:43;96773.76;;;29.28;23.83
47082;BME280;33066;49.296;14.470;2023-09-19T12:06:11;96779.23;;;29.48;24.00
47082;BME280;33066;49.296;14.470;2023-09-19T12:08:32;96782.02;;;29.40;23.78
47082;BME280;33066;49.296;14.470;2023-09-19T12:10:57;96769.46;;;30.24;23.55
47082;BME280;33066;49.296;14.470;2023-09-19T12:13:23;96771.09;;;30.99;22.66
47082;BME280;33066;49.296;14.470;2023-09-19T12:15:49;96769.85;;;31.20;22.84
47082;BME280;33066;49.296;14.470;2023-09-19T12:18:26;96766.54;;;31.30;22.68
47082;BME280;33066;49.296;14.470;2023-09-19T12:20:42;96765.71;;;30.70;22.45
47082;BME280;33066;49.296;14.470;2023-09-19T12:23:12;96773.51;;;30.40;23.23
47082;BME280;33066;49.296;14.470;2023-09-19T12:27:58;96775.85;;;30.47;23.55
47082;BME280;33066;49.296;14.470;2023-09-19T12:30:28;96779.48;;;30.30;23.74
47082;BME280;33066;49.296;14.470;2023-09-19T12:32:49;96786.16;;;30.78;23.19
47082;BME280;33066;49.296;14.470;2023-09-19T12:37:44;96781.24;;;31.28;23.04
47082;BME280;33066;49.296;14.470;2023-09-19T12:40:08;96779.08;;;32.04;21.75
47082;BME280;33066;49.296;14.470;2023-09-19T12:42:33;96771.12;;;33.01;20.84
47082;BME280;33066;49.296;14.470;2023-09-19T12:44:58;96778.87;;;33.00;20.35
47082;BME280;33066;49.296;14.470;2023-09-19T12:47:24;96771.83;;;33.81;19.79
47082;BME280;33066;49.296;14.470;2023-09-19T12:52:14;96764.78;;;34.75;19.45
47082;BME280;33066;49.296;14.470;2023-09-19T12:54:40;96770.22;;;34.99;18.72
47082;BME280;33066;49.296;14.470;2023-09-19T12:57:06;96777.10;;;33.37;19.77
47082;BME280;33066;49.296;14.470;2023-09-19T12:59:31;96775.31;;;31.99;20.55